createdAt,value
2023-05-21T00:01:08.099Z,99.90
2023-05-21T00:03:36.069Z,99.90
2023-05-21T00:06:03.951Z,99.90
2023-05-21T00:08:31.098Z,99.90
2023-05-21T00:10:58.022Z,99.90
2023-05-21T00:13:24.777Z,99.90
2023-05-21T00:15:51.660Z,99.90
2023-05-21T00:18:18.472Z,99.90
2023-05-21T00:20:45.759Z,99.90
2023-05-21T00:23:12.729Z,99.90
2023-05-21T00:25:39.481Z,99.90
2023-05-21T00:28:06.326Z,99.90
2023-05-21T00:30:33.148Z,99.90
2023-05-21T00:33:02.490Z,99.90
2023-05-21T00:35:29.598Z,99.90
2023-05-21T00:37:56.444Z,99.90
2023-05-21T00:40:23.221Z,99.90
2023-05-21T00:42:50.017Z,99.90
2023-05-21T00:45:16.895Z,99.90
2023-05-21T00:47:44.257Z,99.90
2023-05-21T00:50:12.230Z,99.90
2023-05-21T00:52:42.080Z,99.90
2023-05-21T00:55:09.848Z,99.90
2023-05-21T00:57:37.232Z,99.90
2023-05-21T01:00:07.546Z,99.90
2023-05-21T01:02:38.095Z,99.90
2023-05-21T01:05:06.836Z,99.90
2023-05-21T01:07:36.071Z,99.90
2023-05-21T01:10:08.128Z,99.90
2023-05-21T01:12:35.799Z,99.90
2023-05-21T01:15:04.028Z,99.90
2023-05-21T01:17:31.878Z,99.90
2023-05-21T01:20:00.081Z,99.90
2023-05-21T01:22:32.444Z,99.90
2023-05-21T01:25:02.610Z,99.90
2023-05-21T01:27:29.443Z,99.90
2023-05-21T01:29:56.822Z,99.90
2023-05-21T01:32:53.579Z,99.90
2023-05-21T01:35:26.214Z,99.90
2023-05-21T01:38:05.875Z,99.90
2023-05-21T01:40:53.258Z,99.90
2023-05-21T01:43:21.424Z,99.90
2023-05-21T01:45:48.706Z,99.90
2023-05-21T01:48:17.443Z,99.90
2023-05-21T01:50:46.171Z,99.90
2023-05-21T01:53:13.045Z,99.90
2023-05-21T01:55:41.866Z,99.90
2023-05-21T01:58:08.713Z,99.90
2023-05-21T02:00:35.406Z,99.90
2023-05-21T02:03:02.262Z,99.90
2023-05-21T02:05:29.020Z,99.90
2023-05-21T02:07:55.721Z,99.90
2023-05-21T02:10:22.456Z,99.90
2023-05-21T02:12:49.171Z,99.90
2023-05-21T02:15:17.930Z,99.90
2023-05-21T02:17:48.178Z,99.90
2023-05-21T02:20:15.553Z,99.90
2023-05-21T02:22:47.233Z,99.90
2023-05-21T02:25:16.071Z,99.90
2023-05-21T02:27:43.542Z,99.90
2023-05-21T02:30:12.094Z,99.90
2023-05-21T02:32:42.558Z,99.90
2023-05-21T02:35:11.959Z,99.90
2023-05-21T02:37:40.493Z,99.90
2023-05-21T02:40:09.717Z,99.90
2023-05-21T02:42:39.314Z,99.90
2023-05-21T02:45:11.329Z,99.90
2023-05-21T02:47:41.319Z,99.90
2023-05-21T02:50:09.361Z,99.90
2023-05-21T02:52:36.423Z,99.90
2023-05-21T02:55:03.224Z,99.90
2023-05-21T02:57:30.010Z,99.90
2023-05-21T02:59:56.720Z,99.90
2023-05-21T03:02:23.806Z,99.90
2023-05-21T03:04:51.370Z,99.90
2023-05-21T03:07:19.203Z,99.90
2023-05-21T03:09:47.004Z,99.90
2023-05-21T03:12:13.983Z,99.90
2023-05-21T03:14:44.133Z,99.90
2023-05-21T03:17:13.899Z,99.90
2023-05-21T03:19:42.081Z,99.90
2023-05-21T03:22:09.483Z,99.90
2023-05-21T03:24:36.671Z,99.90
2023-05-21T03:27:06.292Z,99.90
2023-05-21T03:29:34.043Z,99.90
2023-05-21T03:32:01.913Z,99.90
2023-05-21T03:34:28.878Z,99.90
2023-05-21T03:36:55.609Z,99.90
2023-05-21T03:39:22.500Z,99.90
2023-05-21T03:41:49.254Z,99.90
2023-05-21T03:44:16.233Z,99.90
2023-05-21T03:46:44.992Z,99.90
2023-05-21T03:49:11.827Z,99.90
2023-05-21T03:51:39.527Z,99.90
2023-05-21T03:54:06.249Z,99.90
2023-05-21T03:56:33.021Z,99.90
2023-05-21T03:58:59.780Z,99.90
2023-05-21T04:01:28.308Z,99.90
2023-05-21T04:03:55.393Z,99.90
2023-05-21T04:06:22.722Z,99.90
2023-05-21T04:08:49.736Z,99.90
2023-05-21T04:11:16.862Z,99.90
2023-05-21T04:13:43.573Z,99.90
2023-05-21T04:16:10.798Z,99.90
2023-05-21T04:18:37.600Z,99.90
2023-05-21T04:21:04.561Z,99.90
2023-05-21T04:23:31.370Z,99.90
2023-05-21T04:25:58.079Z,99.90
2023-05-21T04:28:24.829Z,99.90
2023-05-21T04:30:51.627Z,99.90
2023-05-21T04:33:20.237Z,99.90
2023-05-21T04:35:50.252Z,99.90
2023-05-21T04:38:20.738Z,99.90
2023-05-21T04:40:53.002Z,99.90
2023-05-21T04:43:25.802Z,99.90
2023-05-21T04:45:55.867Z,99.90
2023-05-21T04:48:24.791Z,99.90
2023-05-21T04:50:53.487Z,99.90
2023-05-21T04:53:20.647Z,99.90
2023-05-21T04:55:47.467Z,99.90
2023-05-21T04:58:14.680Z,99.90
2023-05-21T05:00:42.251Z,99.90
2023-05-21T05:03:09.224Z,99.90
2023-05-21T05:05:36.359Z,99.90
2023-05-21T05:08:04.077Z,99.90
2023-05-21T05:10:30.788Z,99.90
2023-05-21T05:12:57.552Z,99.90
2023-05-21T05:15:24.344Z,99.90
2023-05-21T05:17:51.302Z,99.90
2023-05-21T05:20:18.324Z,99.90
2023-05-21T05:22:45.068Z,99.90
2023-05-21T05:25:11.891Z,99.90
2023-05-21T05:27:38.783Z,99.90
2023-05-21T05:30:06.610Z,99.90
2023-05-21T05:32:33.407Z,99.90
2023-05-21T05:35:02.195Z,99.90
2023-05-21T05:37:29.332Z,99.90
2023-05-21T05:39:56.248Z,99.90
2023-05-21T05:42:23.032Z,99.90
2023-05-21T05:44:49.800Z,99.90
2023-05-21T05:47:17.136Z,99.90
2023-05-21T05:49:43.840Z,99.90
2023-05-21T05:52:10.777Z,99.90
2023-05-21T05:54:37.521Z,99.90
2023-05-21T05:57:04.492Z,99.90
2023-05-21T05:59:33.762Z,99.90
2023-05-21T06:02:01.389Z,99.90
2023-05-21T06:04:30.134Z,99.90
2023-05-21T06:07:00.585Z,99.90
2023-05-21T06:09:27.400Z,99.90
2023-05-21T06:11:54.415Z,99.90
2023-05-21T06:14:21.125Z,99.90
2023-05-21T06:16:48.018Z,99.90
2023-05-21T06:19:14.834Z,99.90
2023-05-21T06:21:41.591Z,99.90
2023-05-21T06:24:08.363Z,99.90
2023-05-21T06:26:35.076Z,99.90
2023-05-21T06:29:02.540Z,99.90
2023-05-21T06:31:29.319Z,99.90
2023-05-21T06:33:56.299Z,99.90
2023-05-21T06:36:23.158Z,99.90
2023-05-21T06:38:49.864Z,99.90
2023-05-21T06:41:16.592Z,99.90
2023-05-21T06:43:43.284Z,99.90
2023-05-21T06:46:10.094Z,99.90
2023-05-21T06:48:36.945Z,99.90
2023-05-21T06:51:03.822Z,99.90
2023-05-21T06:53:30.554Z,99.90
2023-05-21T06:55:57.233Z,99.90
2023-05-21T06:58:24.077Z,99.90
2023-05-21T07:00:50.973Z,99.90
2023-05-21T07:03:17.967Z,99.90
2023-05-21T07:05:44.773Z,99.90
2023-05-21T07:08:12.351Z,99.90
2023-05-21T07:10:39.180Z,99.90
2023-05-21T07:13:06.050Z,99.90
2023-05-21T07:15:32.864Z,99.90
2023-05-21T07:17:59.733Z,99.90
2023-05-21T07:20:26.511Z,99.90
2023-05-21T07:22:53.197Z,99.90
2023-05-21T07:25:20.127Z,99.90
2023-05-21T07:27:46.870Z,99.90
2023-05-21T07:30:14.548Z,99.90
2023-05-21T07:32:41.395Z,99.90
2023-05-21T07:35:08.585Z,99.90
2023-05-21T07:37:35.334Z,99.90
2023-05-21T07:40:02.142Z,99.90
2023-05-21T07:42:28.873Z,99.90
2023-05-21T07:44:55.803Z,99.90
2023-05-21T07:47:23.512Z,99.90
2023-05-21T07:49:50.439Z,99.90
2023-05-21T07:52:17.228Z,99.90
2023-05-21T07:54:43.995Z,99.90
2023-05-21T07:57:10.922Z,99.90
2023-05-21T07:59:37.791Z,99.90
2023-05-21T08:02:04.804Z,99.90
2023-05-21T08:04:31.550Z,99.90
2023-05-21T08:06:58.583Z,99.90
2023-05-21T08:09:25.841Z,99.90
2023-05-21T08:11:52.576Z,99.90
2023-05-21T08:14:19.350Z,99.90
2023-05-21T08:16:46.705Z,99.90
2023-05-21T08:19:13.474Z,99.90
2023-05-21T08:21:40.411Z,99.90
2023-05-21T08:24:07.552Z,99.90
2023-05-21T08:26:34.315Z,99.90
2023-05-21T08:29:01.099Z,99.90
2023-05-21T08:31:28.209Z,99.90
2023-05-21T08:33:56.495Z,99.90
2023-05-21T08:36:23.707Z,99.90
2023-05-21T08:38:50.804Z,99.90
2023-05-21T08:41:21.755Z,99.90
2023-05-21T08:43:53.567Z,99.90
2023-05-21T08:46:24.082Z,99.90
2023-05-21T08:48:55.057Z,99.90
2023-05-21T08:51:22.496Z,99.90
2023-05-21T08:53:51.047Z,99.90
2023-05-21T08:56:18.301Z,99.90
2023-05-21T08:58:46.723Z,99.90
2023-05-21T09:01:14.171Z,99.90
2023-05-21T09:03:42.054Z,99.90
2023-05-21T09:06:14.264Z,99.90
2023-05-21T09:08:45.914Z,99.90
2023-05-21T09:11:13.705Z,99.90
2023-05-21T09:13:41.752Z,99.90
2023-05-21T09:16:10.069Z,99.90
2023-05-21T09:18:36.825Z,99.90
2023-05-21T09:21:31.347Z,99.90
2023-05-21T09:23:59.465Z,99.90
2023-05-21T09:26:26.626Z,99.90
2023-05-21T09:28:59.228Z,99.90
2023-05-21T09:31:26.894Z,99.90
2023-05-21T09:33:55.499Z,99.90
2023-05-21T09:36:22.741Z,99.90
2023-05-21T09:38:52.081Z,99.90
2023-05-21T09:41:21.979Z,99.90
2023-05-21T09:43:49.514Z,99.90
2023-05-21T09:46:20.606Z,99.90
2023-05-21T09:48:47.368Z,99.90
2023-05-21T09:51:18.370Z,99.90
2023-05-21T09:53:57.833Z,99.90
2023-05-21T09:56:26.933Z,99.90
2023-05-21T09:58:55.026Z,99.90
2023-05-21T10:01:22.123Z,99.90
2023-05-21T10:03:55.183Z,99.90
2023-05-21T10:06:28.484Z,99.90
2023-05-21T10:08:56.900Z,99.90
2023-05-21T10:11:26.993Z,99.90
2023-05-21T10:14:04.137Z,99.90
2023-05-21T10:16:33.576Z,99.90
2023-05-21T10:19:01.208Z,99.90
2023-05-21T10:21:28.668Z,99.90
2023-05-21T10:23:58.532Z,99.90
2023-05-21T10:26:26.381Z,99.90
2023-05-21T10:28:56.446Z,99.90
2023-05-21T10:31:24.283Z,99.90
2023-05-21T10:33:53.052Z,99.90
2023-05-21T10:36:21.879Z,99.90
2023-05-21T10:38:48.806Z,99.90
2023-05-21T10:41:17.805Z,99.90
2023-05-21T10:43:56.436Z,99.90
2023-05-21T10:46:44.645Z,99.90
2023-05-21T10:49:49.001Z,99.90
2023-05-21T10:52:37.677Z,99.90
2023-05-21T10:55:19.667Z,99.90
2023-05-21T10:58:08.033Z,98.40
2023-05-21T11:00:35.229Z,99.90
2023-05-21T11:03:03.379Z,99.90
2023-05-21T11:05:56.417Z,95.20
2023-05-21T11:08:24.478Z,85.90
2023-05-21T11:10:55.726Z,27.70
2023-05-21T11:13:22.476Z,4.40
2023-05-21T11:15:58.341Z,10.30
2023-05-21T11:18:40.282Z,97.90
2023-05-21T11:21:18.136Z,85.50
2023-05-21T11:23:51.012Z,69.10
2023-05-21T11:26:22.511Z,72.80
2023-05-21T11:29:04.353Z,68.20
2023-05-21T11:31:38.751Z,99.90
2023-05-21T11:34:15.464Z,90.80
2023-05-21T11:36:45.945Z,44.30
2023-05-21T11:39:21.800Z,94.80
2023-05-21T11:41:54.391Z,99.90
2023-05-21T11:44:43.718Z,45.50
2023-05-21T11:47:12.744Z,99.90
2023-05-21T11:49:39.570Z,99.90
2023-05-21T11:52:07.658Z,99.90
2023-05-21T11:54:50.491Z,99.90
2023-05-21T11:57:19.281Z,80.40
2023-05-21T11:59:46.786Z,99.90
2023-05-21T12:02:17.645Z,90.00
2023-05-21T12:04:45.503Z,81.50
2023-05-21T12:07:15.718Z,58.50
2023-05-21T12:09:43.944Z,85.20
2023-05-21T12:12:13.419Z,74.70
2023-05-21T12:14:43.292Z,33.40
2023-05-21T12:17:16.601Z,57.90
2023-05-21T12:19:43.923Z,30.40
2023-05-21T12:22:10.872Z,53.80
2023-05-21T12:24:38.498Z,99.90
2023-05-21T12:27:09.718Z,91.40
2023-05-21T12:29:41.623Z,82.80
2023-05-21T12:32:10.282Z,63.60
2023-05-21T12:34:45.716Z,26.50
2023-05-21T12:37:16.938Z,24.80
2023-05-21T12:39:45.111Z,56.00
2023-05-21T12:42:12.896Z,84.60
2023-05-21T12:44:48.502Z,61.20
2023-05-21T12:47:15.412Z,43.90
2023-05-21T12:49:50.337Z,49.50
2023-05-21T12:52:20.436Z,78.60
2023-05-21T12:54:53.729Z,99.00
2023-05-21T12:57:25.090Z,91.90
2023-05-21T12:59:53.101Z,99.90
2023-05-21T13:02:32.068Z,53.70
2023-05-21T13:04:59.602Z,74.00
2023-05-21T13:07:29.148Z,99.90
2023-05-21T13:09:56.625Z,99.90
2023-05-21T13:12:26.483Z,80.20
2023-05-21T13:14:58.296Z,30.50
2023-05-21T13:17:26.264Z,96.90
2023-05-21T13:20:15.553Z,48.10
2023-05-21T13:22:43.654Z,99.90
2023-05-21T13:25:11.622Z,99.90
2023-05-21T13:27:39.147Z,82.00
2023-05-21T13:30:06.873Z,99.90
2023-05-21T13:32:34.589Z,91.50
2023-05-21T13:35:01.448Z,66.90
2023-05-21T13:37:28.381Z,49.30
2023-05-21T13:39:55.154Z,98.10
2023-05-21T13:42:22.465Z,65.30
2023-05-21T13:44:49.724Z,41.50
2023-05-21T13:47:16.887Z,55.60
2023-05-21T13:49:43.648Z,66.20
2023-05-21T13:52:10.489Z,50.00
2023-05-21T13:54:37.273Z,61.30
2023-05-21T13:57:04.394Z,44.90
2023-05-21T13:59:33.346Z,99.90
2023-05-21T14:02:00.878Z,98.70
2023-05-21T14:04:27.826Z,45.10
2023-05-21T14:06:54.941Z,54.90
2023-05-21T14:09:23.369Z,45.50
2023-05-21T14:11:50.822Z,66.40
2023-05-21T14:14:19.085Z,29.20
2023-05-21T14:16:47.879Z,39.50
2023-05-21T14:19:15.135Z,61.60
2023-05-21T14:21:42.146Z,50.30
2023-05-21T14:24:08.918Z,78.70
2023-05-21T14:26:41.037Z,41.10
2023-05-21T14:29:08.007Z,24.60
2023-05-21T14:31:35.231Z,83.50
2023-05-21T14:34:03.046Z,53.00
2023-05-21T14:36:30.113Z,39.30
2023-05-21T14:38:56.909Z,70.10
2023-05-21T14:41:27.477Z,32.30
2023-05-21T14:43:54.615Z,1.00
2023-05-21T14:46:21.747Z,1.00
2023-05-21T14:48:48.520Z,1.00
2023-05-21T14:51:15.362Z,28.80
2023-05-21T14:53:42.328Z,15.80
2023-05-21T14:56:09.250Z,29.20
2023-05-21T14:58:36.093Z,28.00
2023-05-21T15:01:04.182Z,31.50
2023-05-21T15:03:31.304Z,31.80
2023-05-21T15:05:58.674Z,57.60
2023-05-21T15:08:25.541Z,46.00
2023-05-21T15:10:52.355Z,42.90
2023-05-21T15:13:19.146Z,66.80
2023-05-21T15:15:46.069Z,46.80
2023-05-21T15:18:13.089Z,70.70
2023-05-21T15:20:39.857Z,68.00
2023-05-21T15:23:15.893Z,60.40
2023-05-21T15:25:43.270Z,76.80
2023-05-21T15:28:10.219Z,99.90
2023-05-21T15:30:36.913Z,89.90
2023-05-21T15:33:03.733Z,81.70
2023-05-21T15:35:30.611Z,77.40
2023-05-21T15:37:57.372Z,68.50
2023-05-21T15:40:26.136Z,1.00
2023-05-21T15:42:53.757Z,39.90
2023-05-21T15:45:20.596Z,1.00
2023-05-21T15:47:47.527Z,1.00
2023-05-21T15:50:14.374Z,1.00
2023-05-21T15:52:42.132Z,1.00
2023-05-21T15:55:09.621Z,1.00
2023-05-21T15:57:36.365Z,1.00
2023-05-21T16:00:04.887Z,1.00
2023-05-21T16:02:31.840Z,1.00
2023-05-21T16:04:59.530Z,1.00
2023-05-21T16:07:26.280Z,1.00
2023-05-21T16:09:53.064Z,1.00
2023-05-21T16:12:19.788Z,7.40
2023-05-21T16:14:49.806Z,1.00
2023-05-21T16:17:16.971Z,1.00
2023-05-21T16:19:43.852Z,43.20
2023-05-21T16:22:11.043Z,54.50
2023-05-21T16:24:37.906Z,89.70
2023-05-21T16:27:05.063Z,76.00
2023-05-21T16:29:32.123Z,73.50
2023-05-21T16:31:58.920Z,62.60
2023-05-21T16:34:25.881Z,84.00
2023-05-21T16:36:52.690Z,99.40
2023-05-21T16:39:19.401Z,88.20
2023-05-21T16:41:46.195Z,97.10
2023-05-21T16:44:13.007Z,99.90
2023-05-21T16:46:39.761Z,99.90
2023-05-21T16:49:06.529Z,99.90
2023-05-21T16:51:33.250Z,99.90
2023-05-21T16:54:00.138Z,99.90
2023-05-21T16:56:27.573Z,99.90
2023-05-21T16:58:54.335Z,99.90
2023-05-21T17:01:21.173Z,99.90
2023-05-21T17:03:48.098Z,99.90
2023-05-21T17:06:15.039Z,99.90
2023-05-21T17:08:42.657Z,99.90
2023-05-21T17:11:09.480Z,99.90
2023-05-21T17:13:36.308Z,99.90
2023-05-21T17:18:31.187Z,99.90
2023-05-21T17:20:58.872Z,99.90
2023-05-21T17:23:25.734Z,99.90
2023-05-21T17:25:52.648Z,99.90
2023-05-21T17:28:19.592Z,99.90
2023-05-21T17:30:48.727Z,99.90
2023-05-21T17:33:16.396Z,99.90
2023-05-21T17:35:43.312Z,99.90
2023-05-21T17:38:10.344Z,99.90
2023-05-21T17:40:37.202Z,99.90
2023-05-21T17:43:04.858Z,99.90
2023-05-21T17:45:31.898Z,99.90
2023-05-21T17:48:00.525Z,99.90
2023-05-21T17:50:27.818Z,99.90
2023-05-21T17:52:54.599Z,99.90
2023-05-21T17:55:21.376Z,99.90
2023-05-21T17:57:48.203Z,99.90
2023-05-21T18:00:15.271Z,99.90
2023-05-21T18:02:42.277Z,99.90
2023-05-21T18:05:09.267Z,99.90
2023-05-21T18:07:37.715Z,99.90
2023-05-21T18:10:05.034Z,99.90
2023-05-21T18:12:31.797Z,99.90
2023-05-21T18:14:58.684Z,99.90
2023-05-21T18:17:25.966Z,99.90
2023-05-21T18:19:52.838Z,99.90
2023-05-21T18:22:19.740Z,99.90
2023-05-21T18:24:46.436Z,99.90
2023-05-21T18:27:13.490Z,99.90
2023-05-21T18:29:40.463Z,99.90
2023-05-21T18:32:07.777Z,99.90
2023-05-21T18:34:34.895Z,99.90
2023-05-21T18:37:01.806Z,99.90
2023-05-21T18:39:28.675Z,99.90
2023-05-21T18:42:08.844Z,99.90
2023-05-21T18:44:39.391Z,99.90
2023-05-21T18:47:07.576Z,99.90
2023-05-21T18:49:35.948Z,99.90
2023-05-21T18:52:03.986Z,99.90
2023-05-21T18:54:30.973Z,99.90
2023-05-21T18:57:00.218Z,99.90
2023-05-21T18:59:28.612Z,99.90
2023-05-21T19:01:55.465Z,99.90
2023-05-21T19:04:22.515Z,99.90
2023-05-21T19:06:49.523Z,99.90
2023-05-21T19:09:16.529Z,99.90
2023-05-21T19:11:43.444Z,99.90
2023-05-21T19:14:10.206Z,99.90
2023-05-21T19:16:37.086Z,99.90
2023-05-21T19:19:04.256Z,99.90
2023-05-21T19:21:31.563Z,99.90
2023-05-21T19:23:58.807Z,99.90
2023-05-21T19:26:25.886Z,99.90
2023-05-21T19:28:53.396Z,99.90
2023-05-21T19:31:25.177Z,99.90
2023-05-21T19:33:52.181Z,99.90
2023-05-21T19:36:21.025Z,99.90
2023-05-21T19:38:49.121Z,99.90
2023-05-21T19:41:16.837Z,99.90
2023-05-21T19:43:44.376Z,99.90
2023-05-21T19:46:11.382Z,99.90
2023-05-21T19:48:38.395Z,99.90
2023-05-21T19:51:05.466Z,99.90
2023-05-21T19:53:32.238Z,99.90
2023-05-21T19:55:58.990Z,99.90
2023-05-21T19:58:29.233Z,99.90
2023-05-21T20:00:58.315Z,99.90
2023-05-21T20:03:26.538Z,99.90
2023-05-21T20:05:53.567Z,99.90
2023-05-21T20:08:20.398Z,99.90
2023-05-21T20:10:48.829Z,99.90
2023-05-21T20:13:18.033Z,99.90
2023-05-21T20:15:44.852Z,99.90
2023-05-21T20:18:12.665Z,99.90
2023-05-21T20:20:41.428Z,99.90
2023-05-21T20:23:08.508Z,99.90
2023-05-21T20:25:35.278Z,99.90
2023-05-21T20:28:03.418Z,99.90
2023-05-21T20:30:34.301Z,99.90
2023-05-21T20:33:04.031Z,99.90
2023-05-21T20:35:31.076Z,99.90
2023-05-21T20:37:57.896Z,99.90
2023-05-21T20:40:24.786Z,99.90
2023-05-21T20:42:53.479Z,99.90
2023-05-21T20:45:21.091Z,99.90
2023-05-21T20:47:49.643Z,99.90
2023-05-21T20:50:17.707Z,99.90
2023-05-21T20:52:47.061Z,99.90
2023-05-21T20:55:14.738Z,99.90
2023-05-21T20:57:41.986Z,99.90
2023-05-21T21:00:12.484Z,99.90
2023-05-21T21:02:39.373Z,99.90
2023-05-21T21:05:10.011Z,99.90
2023-05-21T21:07:37.385Z,99.90
2023-05-21T21:10:04.793Z,99.90
2023-05-21T21:12:31.534Z,99.90
2023-05-21T21:14:58.230Z,99.90
2023-05-21T21:17:25.011Z,99.90
2023-05-21T21:19:51.862Z,99.90
2023-05-21T21:22:19.816Z,99.90
2023-05-21T21:24:47.453Z,99.90
2023-05-21T21:27:14.278Z,99.90
2023-05-21T21:29:41.069Z,99.90
2023-05-21T21:32:08.065Z,99.90
2023-05-21T21:34:34.831Z,99.90
2023-05-21T21:37:05.381Z,99.90
2023-05-21T21:39:32.093Z,99.90
2023-05-21T21:41:58.854Z,99.90
2023-05-21T21:44:25.614Z,99.90
2023-05-21T21:46:52.338Z,99.90
2023-05-21T21:49:19.079Z,99.90
2023-05-21T21:51:45.928Z,99.90
2023-05-21T21:54:12.744Z,99.90
2023-05-21T21:56:39.592Z,99.90
2023-05-21T21:59:06.439Z,99.90
2023-05-21T22:01:33.509Z,99.90
2023-05-21T22:04:00.345Z,99.90
2023-05-21T22:06:27.768Z,99.90
2023-05-21T22:08:54.780Z,99.90
2023-05-21T22:11:21.942Z,99.90
2023-05-21T22:13:48.811Z,99.90
2023-05-21T22:16:15.616Z,99.90
2023-05-21T22:18:42.418Z,99.90
2023-05-21T22:21:10.354Z,99.90
2023-05-21T22:23:38.283Z,99.90
2023-05-21T22:26:05.854Z,99.90
2023-05-21T22:28:32.972Z,99.90
2023-05-21T22:30:59.824Z,99.90
2023-05-21T22:33:26.832Z,99.90
2023-05-21T22:35:54.425Z,99.90
2023-05-21T22:38:21.467Z,99.90
2023-05-21T22:40:48.417Z,99.90
2023-05-21T22:43:15.260Z,99.90
2023-05-21T22:45:42.231Z,99.90
2023-05-21T22:48:09.604Z,99.90
2023-05-21T22:50:38.245Z,99.90
2023-05-21T22:53:05.713Z,99.90
2023-05-21T22:55:32.488Z,99.90
2023-05-21T22:57:59.277Z,99.90
2023-05-21T23:00:26.559Z,99.90
2023-05-21T23:02:54.533Z,99.90
2023-05-21T23:05:22.211Z,99.90
2023-05-21T23:07:49.204Z,99.90
2023-05-21T23:10:16.060Z,99.90
2023-05-21T23:12:42.828Z,99.90
2023-05-21T23:15:10.980Z,99.90
2023-05-21T23:17:38.684Z,99.90
2023-05-21T23:20:07.061Z,99.90
2023-05-21T23:22:34.211Z,99.90
2023-05-21T23:25:01.125Z,99.90
2023-05-21T23:27:27.847Z,99.90
2023-05-21T23:29:54.602Z,99.90
2023-05-21T23:32:21.434Z,99.90
2023-05-21T23:34:48.272Z,99.90
2023-05-21T23:37:15.199Z,99.90
2023-05-21T23:39:43.517Z,99.90
2023-05-21T23:42:10.695Z,99.90
2023-05-21T23:44:37.533Z,99.90
2023-05-21T23:47:04.527Z,99.90
2023-05-21T23:49:31.208Z,99.90
2023-05-21T23:51:59.058Z,99.90
2023-05-21T23:54:25.943Z,99.90
2023-05-21T23:56:52.665Z,99.90
2023-05-21T23:59:19.500Z,99.90
